sensor_id;sensor_type;location;lat;lon;timestamp;temperature;humidity
41256;DHT22;26989;45.524;10.938;2023-03-23T00:01:48;11.70;99.90
41256;DHT22;26989;45.524;10.938;2023-03-23T00:04:18;11.70;99.90
41256;DHT22;26989;45.524;10.938;2023-03-23T00:06:44;11.60;99.90
41256;DHT22;26989;45.524;10.938;2023-03-23T00:09:12;11.60;99.90
41256;DHT22;26989;45.524;10.938;2023-03-23T00:11:38;11.60;99.90
41256;DHT22;26989;45.524;10.938;2023-03-23T00:14:04;11.50;99.90
41256;DHT22;26989;45.524;10.938;2023-03-23T00:16:32;11.50;99.90
41256;DHT22;26989;45.524;10.938;2023-03-23T00:19:04;11.50;99.90
41256;DHT22;26989;45.524;10.938;2023-03-23T00:21:33;11.40;99.90
41256;DHT22;26989;45.524;10.938;2023-03-23T00:24:08;11.40;99.90
41256;DHT22;26989;45.524;10.938;2023-03-23T00:26:39;11.40;99.90
41256;DHT22;26989;45.524;10.938;2023-03-23T00:29:20;11.30;99.90
41256;DHT22;26989;45.524;10.938;2023-03-23T00:31:49;11.30;99.90
41256;DHT22;26989;45.524;10.938;2023-03-23T00:34:21;11.30;99.90
41256;DHT22;26989;45.524;10.938;2023-03-23T00:36:49;11.20;99.90
41256;DHT22;26989;45.524;10.938;2023-03-23T00:39:16;11.30;99.90
41256;DHT22;26989;45.524;10.938;2023-03-23T00:41:43;11.20;99.90
41256;DHT22;26989;45.524;10.938;2023-03-23T00:44:10;11.30;99.90
41256;DHT22;26989;45.524;10.938;2023-03-23T00:46:43;11.20;99.90
41256;DHT22;26989;45.524;10.938;2023-03-23T00:49:16;11.20;99.90
41256;DHT22;26989;45.524;10.938;2023-03-23T00:51:42;11.30;99.90
41256;DHT22;26989;45.524;10.938;2023-03-23T00:54:09;11.20;99.90
41256;DHT22;26989;45.524;10.938;2023-03-23T00:56:35;11.20;99.90
41256;DHT22;26989;45.524;10.938;2023-03-23T00:59:01;11.20;99.90
41256;DHT22;26989;45.524;10.938;2023-03-23T01:01:27;11.30;99.90
41256;DHT22;26989;45.524;10.938;2023-03-23T01:03:52;11.30;99.90
41256;DHT22;26989;45.524;10.938;2023-03-23T01:06:27;11.30;99.90
41256;DHT22;26989;45.524;10.938;2023-03-23T01:08:56;11.20;99.90
41256;DHT22;26989;45.524;10.938;2023-03-23T01:11:22;11.20;99.90
41256;DHT22;26989;45.524;10.938;2023-03-23T01:13:48;11.20;99.90
41256;DHT22;26989;45.524;10.938;2023-03-23T01:16:13;11.20;99.90
41256;DHT22;26989;45.524;10.938;2023-03-23T01:18:40;11.10;99.90
41256;DHT22;26989;45.524;10.938;2023-03-23T01:21:15;11.10;99.90
41256;DHT22;26989;45.524;10.938;2023-03-23T01:23:42;11.00;99.90
41256;DHT22;26989;45.524;10.938;2023-03-23T01:26:17;11.00;99.90
41256;DHT22;26989;45.524;10.938;2023-03-23T01:28:43;11.00;99.90
41256;DHT22;26989;45.524;10.938;2023-03-23T01:31:15;11.00;99.90
41256;DHT22;26989;45.524;10.938;2023-03-23T01:33:42;11.10;99.90
41256;DHT22;26989;45.524;10.938;2023-03-23T01:36:14;11.10;99.90
41256;DHT22;26989;45.524;10.938;2023-03-23T01:38:43;11.00;99.90
41256;DHT22;26989;45.524;10.938;2023-03-23T01:41:09;11.00;99.90
41256;DHT22;26989;45.524;10.938;2023-03-23T01:43:36;11.10;99.90
41256;DHT22;26989;45.524;10.938;2023-03-23T01:46:18;11.10;99.90
41256;DHT22;26989;45.524;10.938;2023-03-23T01:48:44;11.10;99.90
41256;DHT22;26989;45.524;10.938;2023-03-23T01:51:15;11.00;99.90
41256;DHT22;26989;45.524;10.938;2023-03-23T01:53:46;11.10;99.90
41256;DHT22;26989;45.524;10.938;2023-03-23T01:56:14;11.10;99.90
41256;DHT22;26989;45.524;10.938;2023-03-23T01:58:41;11.20;99.90
41256;DHT22;26989;45.524;10.938;2023-03-23T02:01:11;11.30;99.90
41256;DHT22;26989;45.524;10.938;2023-03-23T02:03:41;11.20;99.90
41256;DHT22;26989;45.524;10.938;2023-03-23T02:06:08;11.10;99.90
41256;DHT22;26989;45.524;10.938;2023-03-23T02:08:34;11.00;99.90
41256;DHT22;26989;45.524;10.938;2023-03-23T02:11:01;11.10;99.90
41256;DHT22;26989;45.524;10.938;2023-03-23T02:13:28;11.10;99.90
41256;DHT22;26989;45.524;10.938;2023-03-23T02:28:00;11.00;99.90
41256;DHT22;26989;45.524;10.938;2023-03-23T02:39:05;10.90;99.90
41256;DHT22;26989;45.524;10.938;2023-03-23T02:41:42;10.90;99.90
41256;DHT22;26989;45.524;10.938;2023-03-23T02:44:11;10.90;99.90
41256;DHT22;26989;45.524;10.938;2023-03-23T02:46:39;10.90;99.90
41256;DHT22;26989;45.524;10.938;2023-03-23T02:49:07;10.90;99.90
41256;DHT22;26989;45.524;10.938;2023-03-23T02:51:34;10.90;99.90
41256;DHT22;26989;45.524;10.938;2023-03-23T02:54:01;10.90;99.90
41256;DHT22;26989;45.524;10.938;2023-03-23T02:56:29;10.80;99.90
41256;DHT22;26989;45.524;10.938;2023-03-23T02:58:55;10.70;99.90
41256;DHT22;26989;45.524;10.938;2023-03-23T03:04:03;10.80;99.90
41256;DHT22;26989;45.524;10.938;2023-03-23T03:06:44;10.70;99.90
41256;DHT22;26989;45.524;10.938;2023-03-23T03:09:40;10.70;99.90
41256;DHT22;26989;45.524;10.938;2023-03-23T03:12:19;10.70;99.90
41256;DHT22;26989;45.524;10.938;2023-03-23T03:15:40;10.70;99.90
41256;DHT22;26989;45.524;10.938;2023-03-23T03:17:40;10.70;99.90
41256;DHT22;26989;45.524;10.938;2023-03-23T03:20:09;10.80;99.90
41256;DHT22;26989;45.524;10.938;2023-03-23T03:22:38;10.70;99.90
41256;DHT22;26989;45.524;10.938;2023-03-23T03:25:08;10.80;99.90
41256;DHT22;26989;45.524;10.938;2023-03-23T03:27:35;10.70;99.90
41256;DHT22;26989;45.524;10.938;2023-03-23T03:30:04;10.70;99.90
41256;DHT22;26989;45.524;10.938;2023-03-23T03:32:37;10.70;99.90
41256;DHT22;26989;45.524;10.938;2023-03-23T03:35:04;10.90;99.90
41256;DHT22;26989;45.524;10.938;2023-03-23T03:37:35;10.80;99.90
41256;DHT22;26989;45.524;10.938;2023-03-23T03:40:13;10.80;99.90
41256;DHT22;26989;45.524;10.938;2023-03-23T03:42:40;10.80;99.90
41256;DHT22;26989;45.524;10.938;2023-03-23T03:45:08;10.80;99.90
41256;DHT22;26989;45.524;10.938;2023-03-23T03:47:34;10.80;99.90
41256;DHT22;26989;45.524;10.938;2023-03-23T03:50:00;10.70;99.90
41256;DHT22;26989;45.524;10.938;2023-03-23T03:52:27;10.60;99.90
41256;DHT22;26989;45.524;10.938;2023-03-23T03:54:53;10.60;99.90
41256;DHT22;26989;45.524;10.938;2023-03-23T03:57:19;10.60;99.90
41256;DHT22;26989;45.524;10.938;2023-03-23T03:59:45;10.60;99.90
41256;DHT22;26989;45.524;10.938;2023-03-23T04:02:13;10.70;99.90
41256;DHT22;26989;45.524;10.938;2023-03-23T04:04:42;10.70;99.90
41256;DHT22;26989;45.524;10.938;2023-03-23T04:07:09;10.70;99.90
41256;DHT22;26989;45.524;10.938;2023-03-23T04:09:40;10.70;99.90
41256;DHT22;26989;45.524;10.938;2023-03-23T04:12:06;10.70;99.90
41256;DHT22;26989;45.524;10.938;2023-03-23T04:14:32;10.80;99.90
41256;DHT22;26989;45.524;10.938;2023-03-23T04:16:58;10.80;99.90
41256;DHT22;26989;45.524;10.938;2023-03-23T04:19:25;10.70;99.90
41256;DHT22;26989;45.524;10.938;2023-03-23T04:21:53;10.80;99.90
41256;DHT22;26989;45.524;10.938;2023-03-23T04:24:20;10.80;99.90
41256;DHT22;26989;45.524;10.938;2023-03-23T04:26:50;10.80;99.90
41256;DHT22;26989;45.524;10.938;2023-03-23T04:29:18;10.70;99.90
41256;DHT22;26989;45.524;10.938;2023-03-23T04:31:44;10.70;99.90
41256;DHT22;26989;45.524;10.938;2023-03-23T04:34:11;10.70;99.90
41256;DHT22;26989;45.524;10.938;2023-03-23T04:36:40;10.60;99.90
41256;DHT22;26989;45.524;10.938;2023-03-23T04:39:06;10.60;99.90
41256;DHT22;26989;45.524;10.938;2023-03-23T04:41:36;10.60;99.90
41256;DHT22;26989;45.524;10.938;2023-03-23T04:44:02;10.60;99.90
41256;DHT22;26989;45.524;10.938;2023-03-23T04:46:28;10.60;99.90
41256;DHT22;26989;45.524;10.938;2023-03-23T04:48:57;10.50;99.90
41256;DHT22;26989;45.524;10.938;2023-03-23T04:51:28;10.50;99.90
41256;DHT22;26989;45.524;10.938;2023-03-23T04:53:54;10.60;99.90
41256;DHT22;26989;45.524;10.938;2023-03-23T04:56:20;10.50;99.90
41256;DHT22;26989;45.524;10.938;2023-03-23T04:58:46;10.50;99.90
41256;DHT22;26989;45.524;10.938;2023-03-23T05:01:13;10.30;99.90
41256;DHT22;26989;45.524;10.938;2023-03-23T05:03:43;10.30;99.90
41256;DHT22;26989;45.524;10.938;2023-03-23T05:06:09;10.30;99.90
41256;DHT22;26989;45.524;10.938;2023-03-23T05:08:36;10.40;99.90
41256;DHT22;26989;45.524;10.938;2023-03-23T05:11:05;10.40;99.90
41256;DHT22;26989;45.524;10.938;2023-03-23T05:13:32;10.30;99.90
41256;DHT22;26989;45.524;10.938;2023-03-23T05:15:58;10.40;99.90
41256;DHT22;26989;45.524;10.938;2023-03-23T05:18:23;10.40;99.90
41256;DHT22;26989;45.524;10.938;2023-03-23T05:20:49;10.50;99.90
41256;DHT22;26989;45.524;10.938;2023-03-23T05:23:18;10.50;99.90
41256;DHT22;26989;45.524;10.938;2023-03-23T05:25:57;10.50;99.90
41256;DHT22;26989;45.524;10.938;2023-03-23T05:28:26;10.50;99.90
41256;DHT22;26989;45.524;10.938;2023-03-23T05:30:52;10.20;99.90
41256;DHT22;26989;45.524;10.938;2023-03-23T05:33:19;10.10;99.90
41256;DHT22;26989;45.524;10.938;2023-03-23T05:35:47;10.00;99.90
41256;DHT22;26989;45.524;10.938;2023-03-23T05:38:13;10.10;99.90
41256;DHT22;26989;45.524;10.938;2023-03-23T05:40:40;10.20;99.90
41256;DHT22;26989;45.524;10.938;2023-03-23T05:43:08;10.20;99.90
41256;DHT22;26989;45.524;10.938;2023-03-23T05:45:34;10.30;99.90
41256;DHT22;26989;45.524;10.938;2023-03-23T05:48:00;10.40;99.90
41256;DHT22;26989;45.524;10.938;2023-03-23T05:50:27;10.50;99.90
41256;DHT22;26989;45.524;10.938;2023-03-23T05:52:54;10.60;99.90
41256;DHT22;26989;45.524;10.938;2023-03-23T05:55:20;10.60;99.90
41256;DHT22;26989;45.524;10.938;2023-03-23T05:57:46;10.70;99.90
41256;DHT22;26989;45.524;10.938;2023-03-23T06:00:13;10.80;99.90
41256;DHT22;26989;45.524;10.938;2023-03-23T06:02:40;10.70;99.90
41256;DHT22;26989;45.524;10.938;2023-03-23T06:05:10;10.80;99.90
41256;DHT22;26989;45.524;10.938;2023-03-23T06:07:36;10.90;99.90
41256;DHT22;26989;45.524;10.938;2023-03-23T06:10:07;11.00;99.90
41256;DHT22;26989;45.524;10.938;2023-03-23T06:12:35;11.10;99.90
41256;DHT22;26989;45.524;10.938;2023-03-23T06:15:01;11.10;99.90
41256;DHT22;26989;45.524;10.938;2023-03-23T06:17:26;11.10;99.90
41256;DHT22;26989;45.524;10.938;2023-03-23T06:19:53;11.10;99.90
41256;DHT22;26989;45.524;10.938;2023-03-23T06:22:19;11.10;99.90
41256;DHT22;26989;45.524;10.938;2023-03-23T06:24:45;11.10;99.90
41256;DHT22;26989;45.524;10.938;2023-03-23T06:27:11;11.10;99.90
41256;DHT22;26989;45.524;10.938;2023-03-23T06:29:37;11.20;99.90
41256;DHT22;26989;45.524;10.938;2023-03-23T06:32:04;11.70;99.90
41256;DHT22;26989;45.524;10.938;2023-03-23T06:34:30;12.00;99.90
41256;DHT22;26989;45.524;10.938;2023-03-23T06:36:57;12.40;99.90
41256;DHT22;26989;45.524;10.938;2023-03-23T06:39:23;12.30;99.90
41256;DHT22;26989;45.524;10.938;2023-03-23T06:41:50;12.20;99.90
41256;DHT22;26989;45.524;10.938;2023-03-23T06:44:16;12.30;99.90
41256;DHT22;26989;45.524;10.938;2023-03-23T06:46:42;12.40;99.90
41256;DHT22;26989;45.524;10.938;2023-03-23T06:49:08;12.50;99.90
41256;DHT22;26989;45.524;10.938;2023-03-23T06:51:34;12.60;99.90
41256;DHT22;26989;45.524;10.938;2023-03-23T06:54:00;12.90;99.90
41256;DHT22;26989;45.524;10.938;2023-03-23T06:56:26;13.10;99.90
41256;DHT22;26989;45.524;10.938;2023-03-23T06:58:52;13.40;99.90
41256;DHT22;26989;45.524;10.938;2023-03-23T07:01:18;13.50;99.90
41256;DHT22;26989;45.524;10.938;2023-03-23T07:03:44;13.40;99.90
41256;DHT22;26989;45.524;10.938;2023-03-23T07:06:10;13.50;99.90
41256;DHT22;26989;45.524;10.938;2023-03-23T07:08:37;13.70;99.90
41256;DHT22;26989;45.524;10.938;2023-03-23T07:11:03;13.80;99.90
41256;DHT22;26989;45.524;10.938;2023-03-23T07:13:29;13.80;99.90
41256;DHT22;26989;45.524;10.938;2023-03-23T07:15:55;13.80;99.90
41256;DHT22;26989;45.524;10.938;2023-03-23T07:18:21;13.80;99.90
41256;DHT22;26989;45.524;10.938;2023-03-23T07:20:48;13.60;99.90
41256;DHT22;26989;45.524;10.938;2023-03-23T07:23:14;13.80;99.90
41256;DHT22;26989;45.524;10.938;2023-03-23T07:25:40;13.90;99.90
41256;DHT22;26989;45.524;10.938;2023-03-23T07:28:06;14.00;99.90
41256;DHT22;26989;45.524;10.938;2023-03-23T07:30:32;14.10;99.90
41256;DHT22;26989;45.524;10.938;2023-03-23T07:32:58;14.20;99.90
41256;DHT22;26989;45.524;10.938;2023-03-23T07:35:24;14.40;99.90
41256;DHT22;26989;45.524;10.938;2023-03-23T07:37:51;14.40;99.90
41256;DHT22;26989;45.524;10.938;2023-03-23T07:40:18;14.70;99.90
41256;DHT22;26989;45.524;10.938;2023-03-23T07:42:46;14.80;99.90
41256;DHT22;26989;45.524;10.938;2023-03-23T07:45:16;15.10;99.90
41256;DHT22;26989;45.524;10.938;2023-03-23T07:47:42;15.30;99.90
41256;DHT22;26989;45.524;10.938;2023-03-23T07:50:09;15.80;99.60
41256;DHT22;26989;45.524;10.938;2023-03-23T07:52:36;15.90;99.40
41256;DHT22;26989;45.524;10.938;2023-03-23T07:55:02;16.00;99.10
41256;DHT22;26989;45.524;10.938;2023-03-23T07:57:29;16.30;98.50
41256;DHT22;26989;45.524;10.938;2023-03-23T07:59:56;16.10;98.50
41256;DHT22;26989;45.524;10.938;2023-03-23T08:02:23;16.10;98.10
41256;DHT22;26989;45.524;10.938;2023-03-23T08:04:50;15.80;98.50
41256;DHT22;26989;45.524;10.938;2023-03-23T08:07:17;15.90;98.60
41256;DHT22;26989;45.524;10.938;2023-03-23T08:09:45;16.00;98.10
41256;DHT22;26989;45.524;10.938;2023-03-23T08:12:11;16.20;98.10
41256;DHT22;26989;45.524;10.938;2023-03-23T08:14:37;16.10;97.90
41256;DHT22;26989;45.524;10.938;2023-03-23T08:17:04;16.20;98.10
41256;DHT22;26989;45.524;10.938;2023-03-23T08:19:30;16.40;97.90
41256;DHT22;26989;45.524;10.938;2023-03-23T08:21:56;16.40;97.80
41256;DHT22;26989;45.524;10.938;2023-03-23T08:24:22;16.30;97.90
41256;DHT22;26989;45.524;10.938;2023-03-23T08:26:50;16.20;98.10
41256;DHT22;26989;45.524;10.938;2023-03-23T08:29:15;16.00;98.30
41256;DHT22;26989;45.524;10.938;2023-03-23T08:31:42;15.70;98.70
41256;DHT22;26989;45.524;10.938;2023-03-23T08:34:10;15.50;98.80
41256;DHT22;26989;45.524;10.938;2023-03-23T08:36:35;15.30;99.10
41256;DHT22;26989;45.524;10.938;2023-03-23T08:39:03;15.40;99.10
41256;DHT22;26989;45.524;10.938;2023-03-23T08:41:31;15.30;99.40
41256;DHT22;26989;45.524;10.938;2023-03-23T08:43:57;15.40;99.40
41256;DHT22;26989;45.524;10.938;2023-03-23T08:46:23;15.30;99.30
41256;DHT22;26989;45.524;10.938;2023-03-23T08:48:49;15.30;99.30
41256;DHT22;26989;45.524;10.938;2023-03-23T08:51:16;15.40;99.20
41256;DHT22;26989;45.524;10.938;2023-03-23T08:53:42;15.50;99.20
41256;DHT22;26989;45.524;10.938;2023-03-23T08:56:11;15.70;98.60
41256;DHT22;26989;45.524;10.938;2023-03-23T08:58:38;15.90;98.60
41256;DHT22;26989;45.524;10.938;2023-03-23T09:01:06;16.10;98.50
41256;DHT22;26989;45.524;10.938;2023-03-23T09:03:34;16.20;98.40
41256;DHT22;26989;45.524;10.938;2023-03-23T09:06:05;16.40;98.10
41256;DHT22;26989;45.524;10.938;2023-03-23T09:08:31;16.50;97.90
41256;DHT22;26989;45.524;10.938;2023-03-23T09:11:06;16.50;97.90
41256;DHT22;26989;45.524;10.938;2023-03-23T09:13:33;16.70;97.90
41256;DHT22;26989;45.524;10.938;2023-03-23T09:15:59;16.70;97.90
41256;DHT22;26989;45.524;10.938;2023-03-23T09:18:25;16.80;97.80
41256;DHT22;26989;45.524;10.938;2023-03-23T09:20:52;16.80;97.60
41256;DHT22;26989;45.524;10.938;2023-03-23T09:23:18;16.80;97.90
41256;DHT22;26989;45.524;10.938;2023-03-23T09:25:44;17.00;97.60
41256;DHT22;26989;45.524;10.938;2023-03-23T09:28:10;17.00;97.70
41256;DHT22;26989;45.524;10.938;2023-03-23T09:30:37;17.00;97.40
41256;DHT22;26989;45.524;10.938;2023-03-23T09:33:05;17.00;97.40
41256;DHT22;26989;45.524;10.938;2023-03-23T09:35:32;17.20;97.30
41256;DHT22;26989;45.524;10.938;2023-03-23T09:37:59;17.30;97.00
41256;DHT22;26989;45.524;10.938;2023-03-23T09:40:43;17.40;96.50
41256;DHT22;26989;45.524;10.938;2023-03-23T09:43:47;17.40;96.40
41256;DHT22;26989;45.524;10.938;2023-03-23T09:48:51;17.30;96.50
41256;DHT22;26989;45.524;10.938;2023-03-23T09:51:32;17.40;95.70
41256;DHT22;26989;45.524;10.938;2023-03-23T09:56:44;17.60;95.60
41256;DHT22;26989;45.524;10.938;2023-03-23T09:59:25;17.70;95.10
41256;DHT22;26989;45.524;10.938;2023-03-23T10:01:55;17.80;95.00
41256;DHT22;26989;45.524;10.938;2023-03-23T10:04:43;17.70;94.90
41256;DHT22;26989;45.524;10.938;2023-03-23T10:07:24;17.70;95.10
41256;DHT22;26989;45.524;10.938;2023-03-23T10:09:56;17.70;95.00
41256;DHT22;26989;45.524;10.938;2023-03-23T10:12:33;17.90;95.20
41256;DHT22;26989;45.524;10.938;2023-03-23T10:15:17;18.10;95.10
41256;DHT22;26989;45.524;10.938;2023-03-23T10:18:03;18.00;95.00
41256;DHT22;26989;45.524;10.938;2023-03-23T10:26:02;18.50;94.90
41256;DHT22;26989;45.524;10.938;2023-03-23T10:28:39;18.30;95.00
41256;DHT22;26989;45.524;10.938;2023-03-23T10:31:10;18.60;95.00
41256;DHT22;26989;45.524;10.938;2023-03-23T10:33:38;18.80;94.20
41256;DHT22;26989;45.524;10.938;2023-03-23T10:36:13;18.90;93.80
41256;DHT22;26989;45.524;10.938;2023-03-23T10:38:53;19.00;94.20
41256;DHT22;26989;45.524;10.938;2023-03-23T10:41:20;19.00;93.60
41256;DHT22;26989;45.524;10.938;2023-03-23T10:43:46;18.70;93.80
41256;DHT22;26989;45.524;10.938;2023-03-23T10:46:23;18.60;94.20
41256;DHT22;26989;45.524;10.938;2023-03-23T10:48:51;18.70;94.20
41256;DHT22;26989;45.524;10.938;2023-03-23T10:51:21;18.60;94.30
41256;DHT22;26989;45.524;10.938;2023-03-23T10:53:56;19.00;94.00
41256;DHT22;26989;45.524;10.938;2023-03-23T10:56:26;19.00;93.30
41256;DHT22;26989;45.524;10.938;2023-03-23T10:58:53;19.20;93.40
41256;DHT22;26989;45.524;10.938;2023-03-23T11:01:30;19.30;93.20
41256;DHT22;26989;45.524;10.938;2023-03-23T11:03:56;19.40;93.30
41256;DHT22;26989;45.524;10.938;2023-03-23T11:06:27;19.60;93.10
41256;DHT22;26989;45.524;10.938;2023-03-23T11:11:43;20.20;92.60
41256;DHT22;26989;45.524;10.938;2023-03-23T11:14:24;20.30;92.60
41256;DHT22;26989;45.524;10.938;2023-03-23T11:16:58;20.20;92.40
41256;DHT22;26989;45.524;10.938;2023-03-23T11:19:28;20.20;92.30
41256;DHT22;26989;45.524;10.938;2023-03-23T11:24:36;20.00;92.50
41256;DHT22;26989;45.524;10.938;2023-03-23T11:27:03;20.10;92.60
41256;DHT22;26989;45.524;10.938;2023-03-23T11:29:33;19.70;92.10
41256;DHT22;26989;45.524;10.938;2023-03-23T11:34:30;19.60;93.00
41256;DHT22;26989;45.524;10.938;2023-03-23T11:37:08;19.30;93.00
41256;DHT22;26989;45.524;10.938;2023-03-23T11:40:00;19.20;93.00
41256;DHT22;26989;45.524;10.938;2023-03-23T11:42:36;18.10;93.80
41256;DHT22;26989;45.524;10.938;2023-03-23T11:45:34;18.00;94.40
41256;DHT22;26989;45.524;10.938;2023-03-23T11:48:27;17.90;94.60
41256;DHT22;26989;45.524;10.938;2023-03-23T11:56:36;18.30;94.60
41256;DHT22;26989;45.524;10.938;2023-03-23T11:59:05;18.50;94.70
41256;DHT22;26989;45.524;10.938;2023-03-23T12:07:10;18.60;94.20
41256;DHT22;26989;45.524;10.938;2023-03-23T12:15:38;18.40;94.70
41256;DHT22;26989;45.524;10.938;2023-03-23T12:26:31;18.40;94.50
41256;DHT22;26989;45.524;10.938;2023-03-23T12:29:22;18.60;94.40
41256;DHT22;26989;45.524;10.938;2023-03-23T12:32:17;18.70;93.70
41256;DHT22;26989;45.524;10.938;2023-03-23T12:43:59;18.70;93.50
41256;DHT22;26989;45.524;10.938;2023-03-23T12:46:32;18.80;93.50
41256;DHT22;26989;45.524;10.938;2023-03-23T12:49:12;18.80;93.10
41256;DHT22;26989;45.524;10.938;2023-03-23T12:57:18;19.10;93.20
41256;DHT22;26989;45.524;10.938;2023-03-23T13:02:32;19.30;92.30
41256;DHT22;26989;45.524;10.938;2023-03-23T13:05:05;18.90;92.70
41256;DHT22;26989;45.524;10.938;2023-03-23T13:07:47;19.00;92.80
41256;DHT22;26989;45.524;10.938;2023-03-23T13:10:22;19.20;92.60
41256;DHT22;26989;45.524;10.938;2023-03-23T13:12:50;19.00;92.20
41256;DHT22;26989;45.524;10.938;2023-03-23T13:18:24;18.90;92.50
41256;DHT22;26989;45.524;10.938;2023-03-23T13:23:21;19.60;91.40
41256;DHT22;26989;45.524;10.938;2023-03-23T13:28:27;20.10;91.30
41256;DHT22;26989;45.524;10.938;2023-03-23T13:31:15;20.20;91.00
41256;DHT22;26989;45.524;10.938;2023-03-23T13:33:50;20.10;91.00
41256;DHT22;26989;45.524;10.938;2023-03-23T13:36:19;20.10;90.30
41256;DHT22;26989;45.524;10.938;2023-03-23T13:38:50;20.20;90.30
41256;DHT22;26989;45.524;10.938;2023-03-23T13:41:18;20.40;90.40
41256;DHT22;26989;45.524;10.938;2023-03-23T13:43:47;20.50;90.20
41256;DHT22;26989;45.524;10.938;2023-03-23T13:46:26;20.50;90.20
41256;DHT22;26989;45.524;10.938;2023-03-23T13:49:17;20.50;90.00
41256;DHT22;26989;45.524;10.938;2023-03-23T13:56:53;20.40;90.00
41256;DHT22;26989;45.524;10.938;2023-03-23T14:01:53;20.40;90.40
41256;DHT22;26989;45.524;10.938;2023-03-23T14:04:19;20.30;90.30
41256;DHT22;26989;45.524;10.938;2023-03-23T14:06:48;20.30;90.40
41256;DHT22;26989;45.524;10.938;2023-03-23T14:09:33;20.20;90.40
41256;DHT22;26989;45.524;10.938;2023-03-23T14:12:05;20.30;90.50
41256;DHT22;26989;45.524;10.938;2023-03-23T14:14:49;20.40;90.10
41256;DHT22;26989;45.524;10.938;2023-03-23T14:17:26;20.20;89.00
41256;DHT22;26989;45.524;10.938;2023-03-23T14:19:54;20.10;89.10
41256;DHT22;26989;45.524;10.938;2023-03-23T14:22:33;20.20;90.20
41256;DHT22;26989;45.524;10.938;2023-03-23T14:25:01;20.40;90.20
41256;DHT22;26989;45.524;10.938;2023-03-23T14:27:30;20.30;89.80
41256;DHT22;26989;45.524;10.938;2023-03-23T14:30:05;20.10;88.50
41256;DHT22;26989;45.524;10.938;2023-03-23T14:32:32;20.00;89.80
41256;DHT22;26989;45.524;10.938;2023-03-23T14:35:00;20.10;87.40
41256;DHT22;26989;45.524;10.938;2023-03-23T14:37:31;20.40;86.80
41256;DHT22;26989;45.524;10.938;2023-03-23T14:39:58;20.60;85.10
41256;DHT22;26989;45.524;10.938;2023-03-23T14:42:33;20.60;84.50
41256;DHT22;26989;45.524;10.938;2023-03-23T14:45:00;20.60;85.60
41256;DHT22;26989;45.524;10.938;2023-03-23T14:47:33;20.70;84.90
41256;DHT22;26989;45.524;10.938;2023-03-23T14:50:01;20.60;83.40
41256;DHT22;26989;45.524;10.938;2023-03-23T14:52:33;20.20;83.40
41256;DHT22;26989;45.524;10.938;2023-03-23T14:55:20;20.50;84.10
41256;DHT22;26989;45.524;10.938;2023-03-23T14:57:47;20.60;83.80
41256;DHT22;26989;45.524;10.938;2023-03-23T15:00:14;20.60;82.40
41256;DHT22;26989;45.524;10.938;2023-03-23T15:02:42;20.50;82.20
41256;DHT22;26989;45.524;10.938;2023-03-23T15:07:39;20.70;82.20
41256;DHT22;26989;45.524;10.938;2023-03-23T15:10:08;20.70;81.40
41256;DHT22;26989;45.524;10.938;2023-03-23T15:12:37;20.60;82.40
41256;DHT22;26989;45.524;10.938;2023-03-23T15:15:06;20.80;85.00
41256;DHT22;26989;45.524;10.938;2023-03-23T15:17:37;20.80;82.50
41256;DHT22;26989;45.524;10.938;2023-03-23T15:20:30;20.70;81.30
41256;DHT22;26989;45.524;10.938;2023-03-23T15:23:05;20.70;83.80
41256;DHT22;26989;45.524;10.938;2023-03-23T15:25:33;20.70;84.30
41256;DHT22;26989;45.524;10.938;2023-03-23T15:28:15;20.70;84.30
41256;DHT22;26989;45.524;10.938;2023-03-23T15:30:53;20.70;84.50
41256;DHT22;26989;45.524;10.938;2023-03-23T15:33:20;20.80;85.00
41256;DHT22;26989;45.524;10.938;2023-03-23T15:35:52;20.40;85.70
41256;DHT22;26989;45.524;10.938;2023-03-23T15:38:26;20.40;85.90
41256;DHT22;26989;45.524;10.938;2023-03-23T15:40:56;20.40;84.80
41256;DHT22;26989;45.524;10.938;2023-03-23T15:46:03;20.40;80.60
41256;DHT22;26989;45.524;10.938;2023-03-23T15:48:53;20.30;79.50
41256;DHT22;26989;45.524;10.938;2023-03-23T15:51:25;20.30;79.60
41256;DHT22;26989;45.524;10.938;2023-03-23T15:53:52;20.20;79.60
41256;DHT22;26989;45.524;10.938;2023-03-23T15:56:19;20.30;78.60
41256;DHT22;26989;45.524;10.938;2023-03-23T15:58:45;20.30;78.40
41256;DHT22;26989;45.524;10.938;2023-03-23T16:01:17;20.20;79.30
41256;DHT22;26989;45.524;10.938;2023-03-23T16:03:55;20.00;80.40
41256;DHT22;26989;45.524;10.938;2023-03-23T16:06:24;20.00;81.50
41256;DHT22;26989;45.524;10.938;2023-03-23T16:08:55;20.00;81.60
41256;DHT22;26989;45.524;10.938;2023-03-23T16:11:24;19.90;81.30
41256;DHT22;26989;45.524;10.938;2023-03-23T16:13:52;19.90;80.70
41256;DHT22;26989;45.524;10.938;2023-03-23T16:16:22;19.90;81.30
41256;DHT22;26989;45.524;10.938;2023-03-23T16:18:50;19.80;81.80
41256;DHT22;26989;45.524;10.938;2023-03-23T16:21:17;19.70;80.70
41256;DHT22;26989;45.524;10.938;2023-03-23T16:23:44;19.70;81.10
41256;DHT22;26989;45.524;10.938;2023-03-23T16:26:12;19.60;80.90
41256;DHT22;26989;45.524;10.938;2023-03-23T16:28:41;19.50;80.50
41256;DHT22;26989;45.524;10.938;2023-03-23T16:31:08;19.30;80.60
41256;DHT22;26989;45.524;10.938;2023-03-23T16:33:35;19.10;81.00
41256;DHT22;26989;45.524;10.938;2023-03-23T16:36:03;19.00;81.50
41256;DHT22;26989;45.524;10.938;2023-03-23T16:38:30;18.80;82.80
41256;DHT22;26989;45.524;10.938;2023-03-23T16:40:57;18.60;83.50
41256;DHT22;26989;45.524;10.938;2023-03-23T16:43:23;18.60;84.00
41256;DHT22;26989;45.524;10.938;2023-03-23T16:45:54;18.60;83.80
41256;DHT22;26989;45.524;10.938;2023-03-23T16:48:22;18.60;84.00
41256;DHT22;26989;45.524;10.938;2023-03-23T16:50:50;18.60;84.00
41256;DHT22;26989;45.524;10.938;2023-03-23T16:53:17;18.30;84.10
41256;DHT22;26989;45.524;10.938;2023-03-23T16:55:44;18.10;84.20
41256;DHT22;26989;45.524;10.938;2023-03-23T16:58:14;17.90;84.50
41256;DHT22;26989;45.524;10.938;2023-03-23T17:00:46;17.70;85.20
41256;DHT22;26989;45.524;10.938;2023-03-23T17:03:13;17.60;85.30
41256;DHT22;26989;45.524;10.938;2023-03-23T17:05:42;17.40;85.30
41256;DHT22;26989;45.524;10.938;2023-03-23T17:08:11;17.20;85.80
41256;DHT22;26989;45.524;10.938;2023-03-23T17:10:38;17.10;86.20
41256;DHT22;26989;45.524;10.938;2023-03-23T17:13:07;16.90;86.40
41256;DHT22;26989;45.524;10.938;2023-03-23T17:15:38;16.80;86.90
41256;DHT22;26989;45.524;10.938;2023-03-23T17:18:06;16.70;87.40